Time;durP1;ratioP1;P1;durP2;ratioP2;P2;SDS_P1;SDS_P2;PMS_P1;PMS_P2;Temp;Humidity;BMP_temperature;BMP_pressure;BME280_temperature;BME280_humidity;BME280_pressure;Samples;Min_cycle;Max_cycle;Signal;HPM_P1;HPM_P2
2024/04/19 00:02:12;;;;;;;7.35;6.00;;;4.40;99.90;;;;;;6579366;21;20000;-79
2024/04/19 00:04:39;;;;;;;9.32;7.28;;;4.40;99.90;;;;;;6581355;21;19996;-78
2024/04/19 00:07:06;;;;;;;8.05;7.22;;;4.50;99.90;;;;;;6581831;21;20029;-79
2024/04/19 00:09:33;;;;;;;8.38;7.40;;;4.50;99.90;;;;;;6581462;21;20012;-79
2024/04/19 00:12:00;;;;;;;8.50;7.57;;;4.50;99.90;;;;;;6581824;21;19996;-78
2024/04/19 00:14:29;;;;;;;8.75;7.65;;;4.60;99.90;;;;;;6581242;21;20070;-79
2024/04/19 00:16:56;;;;;;;8.45;7.55;;;4.60;99.90;;;;;;6579139;21;20009;-78
2024/04/19 00:19:24;;;;;;;10.43;8.27;;;4.60;99.90;;;;;;6581069;21;19992;-78
2024/04/19 00:21:51;;;;;;;9.57;7.40;;;4.60;99.90;;;;;;6581184;21;20069;-79
2024/04/19 00:24:18;;;;;;;9.25;7.75;;;4.60;99.90;;;;;;6578716;21;20215;-78
2024/04/19 00:26:45;;;;;;;10.10;7.70;;;4.70;99.90;;;;;;6581245;21;20283;-78
2024/04/19 00:29:12;;;;;;;9.70;7.35;;;4.70;99.90;;;;;;6579133;21;19996;-79
2024/04/19 00:31:39;;;;;;;9.35;7.22;;;4.70;99.90;;;;;;6578975;21;19992;-78
2024/04/19 00:34:06;;;;;;;9.70;8.30;;;4.70;99.90;;;;;;6579278;21;20370;-79
2024/04/19 00:36:33;;;;;;;11.20;7.72;;;4.80;99.90;;;;;;6578199;21;20004;-78
2024/04/19 00:39:00;;;;;;;11.93;8.65;;;4.80;99.90;;;;;;6580968;21;19992;-78
2024/04/19 00:41:27;;;;;;;9.70;8.70;;;4.80;99.90;;;;;;6578903;21;19992;-79
2024/04/19 00:43:54;;;;;;;10.73;7.97;;;4.80;99.90;;;;;;6580722;21;19988;-78
2024/04/19 00:46:21;;;;;;;10.13;8.48;;;4.80;99.90;;;;;;6581702;21;19996;-79
2024/04/19 00:48:48;;;;;;;11.75;8.63;;;4.80;99.90;;;;;;6581367;21;20397;-79
2024/04/19 00:51:16;;;;;;;15.20;8.52;;;4.80;99.90;;;;;;6580630;21;19993;-79
2024/04/19 00:53:43;;;;;;;10.85;8.55;;;4.90;99.90;;;;;;6578886;21;20062;-79
2024/04/19 00:56:11;;;;;;;9.35;8.30;;;4.90;99.90;;;;;;6580945;21;20063;-79
2024/04/19 00:58:40;;;;;;;13.45;9.57;;;4.90;99.90;;;;;;6579230;21;19996;-79
2024/04/19 01:01:07;;;;;;;10.45;8.60;;;4.90;99.90;;;;;;6580786;21;19996;-78
2024/04/19 01:03:35;;;;;;;11.23;9.15;;;5.00;99.90;;;;;;6580284;21;20001;-80
2024/04/19 01:06:03;;;;;;;10.95;8.77;;;5.00;99.90;;;;;;6578470;21;19996;-80
2024/04/19 01:08:30;;;;;;;10.93;8.95;;;5.00;99.90;;;;;;6578438;21;20003;-79
2024/04/19 01:10:58;;;;;;;10.18;8.55;;;5.00;99.90;;;;;;6578357;21;20390;-80
2024/04/19 01:13:25;;;;;;;12.45;8.88;;;5.00;99.90;;;;;;6580511;21;19996;-79
2024/04/19 01:15:52;;;;;;;17.40;9.80;;;5.00;99.90;;;;;;6578274;21;20000;-79
2024/04/19 01:18:20;;;;;;;12.30;9.35;;;5.10;99.90;;;;;;6578843;21;20007;-79
2024/04/19 01:20:47;;;;;;;12.25;9.90;;;5.10;99.90;;;;;;6580066;21;20070;-79
2024/04/19 01:23:17;;;;;;;12.52;10.00;;;5.10;99.90;;;;;;6579879;21;20003;-78
2024/04/19 01:25:45;;;;;;;12.15;9.32;;;5.10;99.90;;;;;;6578739;21;20067;-79
2024/04/19 01:28:12;;;;;;;12.30;9.05;;;5.10;99.90;;;;;;6580275;21;20004;-79
2024/04/19 01:30:42;;;;;;;13.13;9.85;;;5.20;99.90;;;;;;6578379;21;20004;-79
2024/04/19 01:33:10;;;;;;;12.25;9.50;;;5.20;99.90;;;;;;6578375;21;20009;-79
2024/04/19 01:35:41;;;;;;;12.93;9.95;;;5.20;99.90;;;;;;6578534;21;19992;-79
2024/04/19 01:38:08;;;;;;;11.68;8.70;;;5.20;99.90;;;;;;6580380;21;19992;-79
2024/04/19 01:40:37;;;;;;;10.82;8.85;;;5.20;99.90;;;;;;6578417;21;20063;-78
2024/04/19 01:43:04;;;;;;;14.60;9.95;;;5.30;99.90;;;;;;6580831;21;20451;-79
2024/04/19 01:45:31;;;;;;;14.43;9.95;;;5.30;99.90;;;;;;6580428;21;19997;-79
2024/04/19 01:48:00;;;;;;;12.13;9.80;;;5.30;99.90;;;;;;6578408;21;20001;-78
2024/04/19 01:50:27;;;;;;;14.80;10.63;;;5.30;99.90;;;;;;6580278;21;20003;-79
2024/04/19 01:52:56;;;;;;;12.77;10.15;;;5.20;99.90;;;;;;6578131;21;19992;-78
2024/04/19 01:55:23;;;;;;;14.57;10.70;;;5.30;99.90;;;;;;6578412;21;19997;-79
2024/04/19 01:57:52;;;;;;;15.90;11.00;;;5.30;99.90;;;;;;6580150;21;20401;-78
2024/04/19 02:00:19;;;;;;;14.02;10.18;;;5.30;99.90;;;;;;6577960;21;20007;-79
2024/04/19 02:02:49;;;;;;;12.60;10.27;;;5.30;99.90;;;;;;6580731;21;20000;-79
2024/04/19 02:05:16;;;;;;;13.15;10.50;;;5.30;99.90;;;;;;6577844;21;20076;-79
2024/04/19 02:07:43;;;;;;;14.70;10.68;;;5.30;99.90;;;;;;6580572;21;19997;-79
2024/04/19 02:10:10;;;;;;;13.18;10.25;;;5.30;99.90;;;;;;6578508;21;19996;-79
2024/04/19 02:12:37;;;;;;;15.25;11.43;;;5.30;99.90;;;;;;6580387;21;20461;-79
2024/04/19 02:15:04;;;;;;;13.93;10.95;;;5.30;99.90;;;;;;6578429;21;19997;-79
2024/04/19 02:17:31;;;;;;;14.40;10.60;;;5.40;99.90;;;;;;6577968;21;20006;-79
2024/04/19 02:20:01;;;;;;;15.48;9.93;;;5.40;99.90;;;;;;6578690;21;20029;-79
2024/04/19 02:22:28;;;;;;;15.90;11.35;;;5.40;99.90;;;;;;6577914;21;20011;-79
2024/04/19 02:24:55;;;;;;;15.13;10.98;;;5.40;99.90;;;;;;6577993;21;20005;-79
2024/04/19 02:32:53;;;;;;;13.88;10.73;;;5.40;99.90;;;;;;6580447;21;20012;-79
2024/04/19 02:35:20;;;;;;;19.05;11.30;;;5.40;99.90;;;;;;6579658;21;19992;-79
2024/04/19 02:37:47;;;;;;;15.02;11.32;;;5.50;99.90;;;;;;6580039;21;19996;-79
2024/04/19 02:40:16;;;;;;;14.73;10.60;;;5.50;99.90;;;;;;6577934;21;20376;-79
2024/04/19 02:42:43;;;;;;;16.02;11.30;;;5.50;99.90;;;;;;6577946;21;20008;-80
2024/04/19 02:45:10;;;;;;;16.02;12.18;;;5.50;99.90;;;;;;6579969;21;20029;-79
2024/04/19 02:47:38;;;;;;;18.05;12.05;;;5.50;99.90;;;;;;6578565;21;20000;-79
2024/04/19 02:50:05;;;;;;;17.02;12.10;;;5.50;99.90;;;;;;6578251;21;20009;-79
2024/04/19 02:52:32;;;;;;;15.10;11.68;;;5.60;99.90;;;;;;6580369;21;20040;-79
2024/04/19 02:55:00;;;;;;;13.93;11.15;;;5.60;99.90;;;;;;6579764;21;20004;-79
2024/04/19 02:57:33;;;;;;;16.30;11.85;;;5.60;99.90;;;;;;6580441;21;20008;-79
2024/04/19 03:00:00;;;;;;;12.43;9.85;;;5.60;99.90;;;;;;6578423;21;20053;-78
2024/04/19 03:02:32;;;;;;;16.63;11.82;;;5.60;99.90;;;;;;6580064;21;19993;-79
2024/04/19 03:05:01;;;;;;;14.45;11.10;;;5.60;99.90;;;;;;6579543;21;20004;-78
2024/04/19 03:07:28;;;;;;;15.55;10.75;;;5.60;99.90;;;;;;6580288;21;20000;-79
2024/04/19 03:09:55;;;;;;;14.63;11.15;;;5.70;99.90;;;;;;6581789;21;20000;-79
2024/04/19 03:12:22;;;;;;;14.27;11.35;;;5.70;99.90;;;;;;6580144;21;19997;-80
2024/04/19 03:14:49;;;;;;;13.40;10.38;;;5.70;99.90;;;;;;6581859;21;20001;-79
2024/04/19 03:17:16;;;;;;;18.38;12.05;;;5.70;99.90;;;;;;6579058;21;20004;-79
2024/04/19 03:19:44;;;;;;;14.15;11.05;;;5.70;99.90;;;;;;6580155;21;20001;-79
2024/04/19 03:22:11;;;;;;;13.73;11.18;;;5.70;99.90;;;;;;6581416;21;19996;-79
2024/04/19 03:24:40;;;;;;;13.27;10.20;;;5.80;99.90;;;;;;6581758;21;20067;-79
2024/04/19 03:27:07;;;;;;;14.95;11.02;;;5.80;99.90;;;;;;6581942;21;20090;-79
2024/04/19 03:29:34;;;;;;;13.70;10.65;;;5.80;99.90;;;;;;6581556;21;19997;-79
2024/04/19 03:32:01;;;;;;;14.30;10.55;;;5.80;99.90;;;;;;6581475;21;20000;-79
2024/04/19 03:34:28;;;;;;;13.35;10.02;;;5.80;99.90;;;;;;6583102;21;20000;-79
2024/04/19 03:36:57;;;;;;;14.15;10.70;;;5.80;99.90;;;;;;6579153;21;20286;-79
2024/04/19 03:39:24;;;;;;;13.95;10.60;;;5.80;99.90;;;;;;6581670;21;20438;-79
2024/04/19 03:41:51;;;;;;;12.60;10.40;;;5.80;99.90;;;;;;6579666;21;20000;-80
2024/04/19 03:47:04;;;;;;;14.13;11.13;;;5.90;99.90;;;;;;6581488;21;20008;-79
2024/04/19 03:49:31;;;;;;;17.42;11.98;;;5.80;99.90;;;;;;6579384;21;20389;-79
2024/04/19 03:52:00;;;;;;;17.60;13.15;;;5.80;99.90;;;;;;6581334;21;19996;-79
2024/04/19 03:54:27;;;;;;;16.25;11.90;;;5.80;99.90;;;;;;6579266;21;20000;-79
2024/04/19 03:56:54;;;;;;;15.15;11.60;;;5.80;99.90;;;;;;6581299;21;20007;-78
2024/04/19 03:59:21;;;;;;;14.65;11.55;;;5.70;99.90;;;;;;6581189;21;20341;-78
2024/04/19 04:01:51;;;;;;;13.45;10.13;;;5.70;99.90;;;;;;6578650;21;20004;-78
2024/04/19 04:04:18;;;;;;;12.27;9.88;;;5.70;99.90;;;;;;6581148;21;19996;-79
2024/04/19 04:06:45;;;;;;;12.85;9.50;;;5.70;99.90;;;;;;6581404;21;20012;-78
2024/04/19 04:09:12;;;;;;;12.35;8.13;;;5.60;99.90;;;;;;6581642;21;20007;-78
2024/04/19 04:11:39;;;;;;;10.90;7.90;;;5.60;99.90;;;;;;6579033;21;20020;-77
2024/04/19 04:14:06;;;;;;;10.15;7.72;;;5.60;99.90;;;;;;6578868;21;20270;-78
2024/04/19 04:16:33;;;;;;;10.65;7.88;;;5.60;99.90;;;;;;6579429;21;20712;-78
2024/04/19 04:19:00;;;;;;;9.43;7.20;;;5.60;99.90;;;;;;6579618;21;20007;-78
2024/04/19 04:21:27;;;;;;;8.57;7.45;;;5.60;99.90;;;;;;6579066;21;20024;-78
2024/04/19 04:23:54;;;;;;;7.78;6.55;;;5.60;99.90;;;;;;6581106;21;19992;-78
2024/04/19 04:26:21;;;;;;;14.23;9.93;;;5.60;99.90;;;;;;6581311;21;19992;-78
2024/04/19 04:28:48;;;;;;;20.05;14.05;;;5.60;99.90;;;;;;6578466;21;20269;-79
2024/04/19 04:31:15;;;;;;;8.57;5.53;;;5.50;99.90;;;;;;6580868;21;20393;-79
2024/04/19 04:33:42;;;;;;;6.63;5.75;;;5.50;99.90;;;;;;6579027;21;19997;-80
2024/04/19 04:36:09;;;;;;;8.38;5.82;;;5.50;99.90;;;;;;6578629;21;20004;-79
2024/04/19 04:38:36;;;;;;;7.97;5.95;;;5.50;99.90;;;;;;6579718;21;19996;-79
2024/04/19 04:41:03;;;;;;;7.38;5.68;;;5.50;99.90;;;;;;6580988;21;20001;-79
2024/04/19 04:43:30;;;;;;;8.35;5.47;;;5.50;99.90;;;;;;6577341;21;20000;-79
2024/04/19 04:45:57;;;;;;;6.68;5.53;;;5.50;99.90;;;;;;6580320;21;20000;-79
2024/04/19 04:48:24;;;;;;;6.10;5.50;;;5.50;99.90;;;;;;6578752;21;20016;-79
2024/04/19 04:50:51;;;;;;;8.80;6.13;;;5.50;99.90;;;;;;6578286;21;20028;-80
2024/04/19 04:53:18;;;;;;;7.65;5.78;;;5.50;99.90;;;;;;6581831;21;20000;-79
2024/04/19 04:55:45;;;;;;;9.23;5.60;;;5.50;99.90;;;;;;6578784;21;20334;-79
2024/04/19 04:58:12;;;;;;;6.57;5.63;;;5.60;99.90;;;;;;6580876;21;20003;-78
2024/04/19 05:00:39;;;;;;;6.95;5.18;;;5.60;99.90;;;;;;6579513;21;20008;-78
2024/04/19 05:03:06;;;;;;;6.38;5.05;;;5.60;99.90;;;;;;6580214;21;20000;-78
2024/04/19 05:05:33;;;;;;;7.30;5.65;;;5.60;99.90;;;;;;6578800;21;20008;-78
2024/04/19 05:08:00;;;;;;;6.22;4.78;;;5.60;99.90;;;;;;6578663;21;19992;-78
2024/04/19 05:10:29;;;;;;;7.15;5.07;;;5.60;99.90;;;;;;6580914;21;20000;-78
2024/04/19 05:12:57;;;;;;;7.07;5.10;;;5.60;99.90;;;;;;6580366;21;20011;-78
2024/04/19 05:15:25;;;;;;;6.35;4.80;;;5.70;99.90;;;;;;6578755;21;20008;-78
2024/04/19 05:17:54;;;;;;;6.18;4.80;;;5.70;99.90;;;;;;6580075;21;19997;-78
2024/04/19 05:20:21;;;;;;;7.10;5.72;;;5.70;99.90;;;;;;6578189;21;20008;-78
2024/04/19 05:22:49;;;;;;;6.40;5.38;;;5.70;99.90;;;;;;6580981;21;19997;-78
2024/04/19 05:25:16;;;;;;;8.93;5.85;;;5.70;99.90;;;;;;6578012;21;20014;-78
2024/04/19 05:27:43;;;;;;;9.40;6.30;;;5.70;99.90;;;;;;6578260;21;20029;-78
2024/04/19 05:30:10;;;;;;;15.23;8.60;;;5.80;99.90;;;;;;6580382;21;20744;-77
2024/04/19 05:32:37;;;;;;;11.40;7.65;;;5.80;99.90;;;;;;6580156;21;20300;-78
2024/04/19 05:35:04;;;;;;;8.48;6.55;;;5.80;99.90;;;;;;6579743;21;20036;-78
2024/04/19 05:37:59;;;;;;;9.15;6.30;;;5.90;99.90;;;;;;6579379;21;20298;-78
2024/04/19 05:40:26;;;;;;;10.20;6.18;;;6.00;99.90;;;;;;6577848;21;20000;-78
2024/04/19 05:42:53;;;;;;;9.77;6.72;;;6.00;99.90;;;;;;6576720;21;20321;-80
2024/04/19 05:45:21;;;;;;;9.68;6.70;;;6.10;99.90;;;;;;6578004;21;20001;-80
2024/04/19 05:47:48;;;;;;;8.35;6.20;;;6.10;99.90;;;;;;6578241;21;20008;-80
2024/04/19 05:50:15;;;;;;;7.50;5.80;;;6.10;99.90;;;;;;6579657;21;20001;-80
2024/04/19 05:52:43;;;;;;;5.80;4.80;;;6.20;99.90;;;;;;6579102;21;20004;-80
2024/04/19 05:55:14;;;;;;;4.95;4.30;;;6.30;99.90;;;;;;6576282;21;20314;-80
2024/04/19 05:57:41;;;;;;;5.85;4.63;;;6.30;99.90;;;;;;6577943;21;20001;-80
2024/04/19 06:00:08;;;;;;;6.97;4.60;;;6.30;99.90;;;;;;6573925;21;20004;-80
2024/04/19 06:02:35;;;;;;;5.15;4.45;;;6.30;99.90;;;;;;6579142;21;19997;-80
2024/04/19 06:05:02;;;;;;;7.28;5.28;;;6.30;99.90;;;;;;6577317;21;20024;-82
2024/04/19 06:07:29;;;;;;;7.22;5.68;;;6.30;99.90;;;;;;6577743;21;20067;-80
2024/04/19 06:09:56;;;;;;;8.07;5.30;;;6.30;99.90;;;;;;6579087;21;20008;-79
2024/04/19 06:12:23;;;;;;;5.18;4.55;;;6.30;99.90;;;;;;6577630;21;20003;-80
2024/04/19 06:14:53;;;;;;;5.70;4.65;;;6.30;99.90;;;;;;6580337;21;19996;-80
2024/04/19 06:17:20;;;;;;;7.25;5.50;;;6.40;99.90;;;;;;6580146;21;20001;-80
2024/04/19 06:19:47;;;;;;;7.53;4.93;;;6.50;99.90;;;;;;6577667;21;20012;-80
2024/04/19 06:22:16;;;;;;;6.43;5.22;;;6.60;99.90;;;;;;6577192;21;20000;-80
2024/04/19 06:24:44;;;;;;;6.45;4.65;;;6.70;99.90;;;;;;6579806;21;20620;-81
2024/04/19 06:27:12;;;;;;;7.43;4.72;;;6.80;99.90;;;;;;6577931;21;20007;-81
2024/04/19 06:29:39;;;;;;;6.63;4.82;;;6.90;99.90;;;;;;6576740;21;20029;-80
2024/04/19 06:32:06;;;;;;;5.45;4.72;;;7.00;99.90;;;;;;6579630;21;20012;-80
2024/04/19 06:34:34;;;;;;;5.03;4.28;;;7.00;99.90;;;;;;6578050;21;20011;-80
2024/04/19 06:37:01;;;;;;;5.57;4.95;;;7.00;99.90;;;;;;6579471;21;20390;-79
2024/04/19 06:39:28;;;;;;;5.82;5.10;;;7.10;99.90;;;;;;6581655;21;20317;-80
2024/04/19 06:41:57;;;;;;;10.35;6.20;;;7.20;99.90;;;;;;6579858;21;19997;-80
2024/04/19 06:44:25;;;;;;;12.00;6.88;;;7.20;99.90;;;;;;6581681;21;20008;-80
2024/04/19 06:46:52;;;;;;;5.82;5.22;;;7.30;99.90;;;;;;6580442;21;20000;-80
2024/04/19 06:49:19;;;;;;;7.95;6.07;;;7.20;99.90;;;;;;6580009;21;19992;-80
2024/04/19 06:51:46;;;;;;;6.97;5.57;;;7.30;99.90;;;;;;6581950;21;20000;-80
2024/04/19 06:54:13;;;;;;;7.60;5.40;;;7.20;99.90;;;;;;6580640;21;19997;-80
2024/04/19 06:56:40;;;;;;;7.22;5.75;;;7.20;99.90;;;;;;6581689;21;19996;-80
2024/04/19 06:59:08;;;;;;;6.18;5.47;;;7.20;99.90;;;;;;6581854;21;20330;-80
2024/04/19 07:01:35;;;;;;;7.38;5.35;;;7.10;99.90;;;;;;6579011;21;20266;-80
2024/04/19 07:04:03;;;;;;;7.45;5.85;;;7.00;99.90;;;;;;6578862;21;19997;-80
2024/04/19 07:06:30;;;;;;;11.27;7.10;;;6.80;99.90;;;;;;6579895;21;20000;-77
2024/04/19 07:09:09;;;;;;;9.45;6.85;;;6.80;99.90;;;;;;6575159;21;20011;-78
2024/04/19 07:11:36;;;;;;;9.38;7.30;;;6.80;99.90;;;;;;6581065;21;20402;-78
2024/04/19 07:14:03;;;;;;;8.98;7.00;;;6.80;99.90;;;;;;6578307;21;20016;-78
2024/04/19 07:16:30;;;;;;;10.65;8.23;;;6.80;99.90;;;;;;6578990;21;20273;-78
2024/04/19 07:18:57;;;;;;;10.35;7.32;;;6.80;99.90;;;;;;6578704;21;20000;-78
2024/04/19 07:21:24;;;;;;;7.88;6.25;;;6.80;99.90;;;;;;6580968;21;19996;-78
2024/04/19 07:23:54;;;;;;;8.65;6.63;;;6.90;99.90;;;;;;6578691;21;20028;-78
2024/04/19 07:26:24;;;;;;;8.07;6.45;;;6.90;99.90;;;;;;6578869;21;20008;-78
2024/04/19 07:28:51;;;;;;;9.35;6.68;;;7.00;99.90;;;;;;6579461;21;20004;-77
2024/04/19 07:31:18;;;;;;;8.55;6.88;;;7.10;99.90;;;;;;6580713;21;20394;-78
2024/04/19 07:33:45;;;;;;;8.40;6.90;;;7.10;99.90;;;;;;6578592;21;20309;-78
2024/04/19 07:36:12;;;;;;;11.45;7.00;;;7.10;99.90;;;;;;6580761;21;20007;-77
2024/04/19 07:38:42;;;;;;;7.80;7.00;;;7.20;99.90;;;;;;6576112;21;19997;-77
2024/04/19 07:41:09;;;;;;;9.02;6.97;;;7.20;99.90;;;;;;6579335;21;19996;-78
2024/04/19 07:43:36;;;;;;;12.68;7.68;;;7.20;99.90;;;;;;6577378;21;20004;-78
2024/04/19 07:46:16;;;;;;;7.18;6.18;;;7.20;99.90;;;;;;6578167;21;20000;-78
2024/04/19 07:48:43;;;;;;;12.27;6.53;;;7.20;99.90;;;;;;6580720;21;20000;-78
2024/04/19 07:51:10;;;;;;;9.18;7.07;;;7.20;99.90;;;;;;6580341;21;20309;-77
2024/04/19 07:53:39;;;;;;;8.15;6.93;;;7.20;99.90;;;;;;6580913;21;20011;-78
2024/04/19 07:56:06;;;;;;;5.68;5.00;;;7.30;99.90;;;;;;6580843;21;20370;-78
2024/04/19 07:58:33;;;;;;;7.47;5.45;;;7.30;99.50;;;;;;6580001;21;20028;-78
2024/04/19 08:01:01;;;;;;;6.30;4.90;;;7.20;99.40;;;;;;6578250;21;20008;-78
2024/04/19 08:03:28;;;;;;;5.80;4.90;;;7.30;99.90;;;;;;6578916;21;20048;-78
2024/04/19 08:05:55;;;;;;;7.65;5.38;;;7.40;99.80;;;;;;6577574;21;20006;-78
2024/04/19 08:08:24;;;;;;;7.07;5.00;;;7.50;99.50;;;;;;6577923;21;20032;-78
2024/04/19 08:10:55;;;;;;;6.78;4.93;;;7.80;99.90;;;;;;6580529;21;20012;-78
2024/04/19 08:13:24;;;;;;;7.05;5.35;;;8.00;98.50;;;;;;6580486;21;20271;-77
2024/04/19 08:15:55;;;;;;;8.13;5.47;;;8.20;98.80;;;;;;6578344;21;20012;-78
2024/04/19 08:18:23;;;;;;;7.47;5.32;;;8.40;98.50;;;;;;6577761;21;20158;-78
2024/04/19 08:20:50;;;;;;;5.72;4.55;;;8.60;97.20;;;;;;6578216;21;19996;-77
2024/04/19 08:23:17;;;;;;;5.10;4.45;;;8.60;96.10;;;;;;6578632;21;19996;-78
2024/04/19 08:25:44;;;;;;;7.18;5.80;;;8.70;96.30;;;;;;6578895;21;20005;-78
2024/04/19 08:28:11;;;;;;;5.63;4.85;;;8.70;96.80;;;;;;6578623;21;20007;-77
2024/04/19 08:30:38;;;;;;;7.10;5.65;;;8.60;96.00;;;;;;6580501;21;20004;-78
2024/04/19 08:33:05;;;;;;;6.85;5.45;;;8.40;96.70;;;;;;6578814;21;20012;-78
2024/04/19 08:35:32;;;;;;;8.02;5.10;;;8.30;96.90;;;;;;6576292;21;20011;-77
2024/04/19 08:38:00;;;;;;;7.15;4.82;;;8.20;97.70;;;;;;6580662;21;20004;-78
2024/04/19 08:40:29;;;;;;;5.93;4.78;;;8.20;95.90;;;;;;6576952;21;20266;-77
2024/04/19 08:42:59;;;;;;;9.18;5.70;;;8.20;96.10;;;;;;6577859;21;20368;-78
2024/04/19 08:45:30;;;;;;;6.53;4.65;;;8.30;95.40;;;;;;6578123;21;19996;-78
2024/04/19 08:47:58;;;;;;;6.50;5.18;;;8.40;95.30;;;;;;6580337;21;20003;-78
2024/04/19 08:50:28;;;;;;;6.20;5.03;;;8.60;94.00;;;;;;6577307;21;20003;-78
2024/04/19 08:52:57;;;;;;;5.88;4.45;;;8.70;93.80;;;;;;6580278;21;20406;-78
2024/04/19 08:55:43;;;;;;;7.25;4.72;;;8.80;93.30;;;;;;6577965;21;19996;-78
2024/04/19 08:58:11;;;;;;;6.35;4.15;;;8.80;91.90;;;;;;6579474;21;20461;-78
2024/04/19 09:00:38;;;;;;;6.78;4.88;;;8.80;91.00;;;;;;6579339;21;20348;-78
2024/04/19 09:03:05;;;;;;;5.35;4.55;;;8.80;90.70;;;;;;6577521;21;20004;-78
2024/04/19 09:05:33;;;;;;;5.82;4.70;;;8.80;90.30;;;;;;6577243;21;20090;-78
2024/04/19 09:08:00;;;;;;;6.40;4.00;;;8.90;91.20;;;;;;6579491;21;20072;-78
2024/04/19 09:10:27;;;;;;;5.28;4.10;;;9.30;90.90;;;;;;6576570;21;20023;-78
2024/04/19 09:12:54;;;;;;;5.45;4.50;;;9.60;87.00;;;;;;6577772;21;20007;-78
2024/04/19 09:15:23;;;;;;;6.53;4.53;;;9.80;81.40;;;;;;6577911;21;20005;-77
2024/04/19 09:17:51;;;;;;;4.55;4.13;;;10.00;82.30;;;;;;6577476;21;20001;-78
2024/04/19 09:20:18;;;;;;;5.10;4.07;;;10.10;76.50;;;;;;6577911;21;20013;-79
2024/04/19 09:22:46;;;;;;;5.13;4.10;;;10.00;75.70;;;;;;6579550;21;20028;-78
2024/04/19 09:25:15;;;;;;;4.28;3.58;;;9.90;78.40;;;;;;6580010;21;20012;-79
2024/04/19 09:27:43;;;;;;;5.43;4.28;;;9.80;77.90;;;;;;6579205;21;19996;-78
2024/04/19 09:30:11;;;;;;;5.03;3.80;;;9.70;78.00;;;;;;6578499;21;19997;-79
2024/04/19 09:32:41;;;;;;;5.68;4.50;;;9.50;79.10;;;;;;6579655;21;19997;-79
2024/04/19 09:35:09;;;;;;;5.95;4.57;;;9.30;82.40;;;;;;6577479;21;20008;-79
2024/04/19 09:37:39;;;;;;;4.60;4.00;;;9.10;84.90;;;;;;6576969;21;20093;-79
2024/04/19 09:40:07;;;;;;;5.45;3.22;;;8.90;90.80;;;;;;6577310;21;20004;-78
2024/04/19 09:42:36;;;;;;;2.72;2.20;;;8.60;91.50;;;;;;6580853;21;19992;-78
2024/04/19 09:45:08;;;;;;;7.82;2.65;;;8.20;92.10;;;;;;6580373;21;20429;-79
2024/04/19 09:47:40;;;;;;;6.18;3.13;;;7.90;93.40;;;;;;6577105;21;20008;-79
2024/04/19 09:50:11;;;;;;;3.33;3.03;;;7.70;94.60;;;;;;6577671;21;20012;-79
2024/04/19 09:52:42;;;;;;;2.83;2.42;;;7.40;95.10;;;;;;6577713;21;20012;-80
2024/04/19 09:55:21;;;;;;;3.50;2.75;;;7.20;96.10;;;;;;6577878;21;20029;-78
2024/04/19 09:57:49;;;;;;;3.05;2.72;;;7.00;97.30;;;;;;6576714;21;20059;-79
2024/04/19 10:00:18;;;;;;;3.83;3.20;;;7.00;98.00;;;;;;6579613;21;19997;-80
2024/04/19 10:02:45;;;;;;;3.92;2.88;;;7.00;98.60;;;;;;6579644;21;20006;-80
2024/04/19 10:05:13;;;;;;;3.42;3.13;;;6.90;98.20;;;;;;6576522;21;20007;-79
2024/04/19 10:07:41;;;;;;;3.25;2.92;;;6.80;97.40;;;;;;6577575;21;20036;-78
2024/04/19 10:10:08;;;;;;;3.40;2.90;;;6.60;96.40;;;;;;6578911;21;20004;-79
2024/04/19 10:12:36;;;;;;;5.35;3.88;;;6.40;96.50;;;;;;6580407;21;20000;-79
2024/04/19 10:15:13;;;;;;;7.63;5.60;;;6.20;97.90;;;;;;6580091;21;20000;-79
2024/04/19 10:17:41;;;;;;;10.05;5.13;;;6.20;98.20;;;;;;6580997;21;20009;-79
2024/04/19 10:20:11;;;;;;;22.42;6.68;;;6.20;98.70;;;;;;6581217;21;20012;-78
2024/04/19 10:22:44;;;;;;;12.32;6.18;;;6.30;99.60;;;;;;6579719;21;20016;-80
2024/04/19 10:25:12;;;;;;;12.63;8.77;;;6.60;99.70;;;;;;6579739;21;20032;-80
2024/04/19 10:27:39;;;;;;;9.07;5.00;;;6.90;99.30;;;;;;6579929;21;20075;-79
2024/04/19 10:30:08;;;;;;;5.20;4.32;;;7.20;99.60;;;;;;6579060;21;19997;-79
2024/04/19 10:32:55;;;;;;;4.82;3.78;;;7.50;99.60;;;;;;6581528;21;20270;-79
2024/04/19 10:35:22;;;;;;;4.43;3.60;;;7.50;96.80;;;;;;6579751;21;19999;-80
2024/04/19 10:37:50;;;;;;;8.40;4.22;;;7.60;98.00;;;;;;6579838;21;20039;-79
2024/04/19 10:40:18;;;;;;;4.63;3.63;;;7.80;97.20;;;;;;6581610;21;20071;-79
2024/04/19 10:42:47;;;;;;;4.80;3.47;;;8.00;96.30;;;;;;6580766;21;20024;-79
2024/04/19 10:45:14;;;;;;;3.67;2.72;;;8.10;95.70;;;;;;6582693;21;20008;-79
2024/04/19 10:47:42;;;;;;;4.57;3.10;;;8.20;94.50;;;;;;6579408;21;20020;-78
2024/04/19 10:50:09;;;;;;;3.47;3.10;;;8.10;95.40;;;;;;6579545;21;20008;-79
2024/04/19 10:52:37;;;;;;;5.07;3.15;;;8.00;95.60;;;;;;6579238;21;20012;-79
2024/04/19 10:55:04;;;;;;;3.90;3.45;;;7.90;95.90;;;;;;6581578;21;20040;-79
2024/04/19 10:57:31;;;;;;;5.18;4.07;;;8.00;97.20;;;;;;6580864;21;20072;-81
2024/04/19 11:00:01;;;;;;;4.63;3.65;;;8.00;97.70;;;;;;6581165;21;20007;-80
2024/04/19 11:02:29;;;;;;;2.70;2.50;;;8.40;98.20;;;;;;6581267;21;20326;-79
2024/04/19 11:04:57;;;;;;;5.18;3.33;;;8.90;96.30;;;;;;6578804;21;20389;-80
2024/04/19 11:07:24;;;;;;;3.15;2.65;;;9.30;96.70;;;;;;6581274;21;20001;-78
2024/04/19 11:09:51;;;;;;;3.05;2.75;;;9.80;94.60;;;;;;6580862;21;20060;-79
2024/04/19 11:12:18;;;;;;;2.67;2.40;;;10.40;92.50;;;;;;6579130;21;20000;-79
2024/04/19 11:14:46;;;;;;;3.42;2.75;;;10.80;79.20;;;;;;6579448;21;20062;-79
2024/04/19 11:17:13;;;;;;;4.00;3.05;;;10.90;75.20;;;;;;6581359;21;20008;-78
2024/04/19 11:19:42;;;;;;;3.78;3.15;;;10.90;74.90;;;;;;6580897;21;20506;-79
2024/04/19 11:22:12;;;;;;;5.50;3.42;;;11.00;75.90;;;;;;6580897;21;20000;-79
2024/04/19 11:24:39;;;;;;;4.95;3.78;;;11.20;78.00;;;;;;6579172;21;20370;-80
2024/04/19 11:27:07;;;;;;;4.22;3.42;;;11.30;70.70;;;;;;6581816;21;20274;-79
2024/04/19 11:29:35;;;;;;;4.85;3.50;;;11.30;71.60;;;;;;6579054;21;20401;-78
2024/04/19 11:32:05;;;;;;;4.50;3.53;;;11.10;70.50;;;;;;6579451;21;19993;-79
2024/04/19 11:34:32;;;;;;;4.53;3.40;;;10.90;69.10;;;;;;6581431;21;19993;-79
2024/04/19 11:37:06;;;;;;;6.30;3.70;;;10.90;68.40;;;;;;6577877;21;20393;-79
2024/04/19 11:39:34;;;;;;;5.47;3.25;;;11.00;68.20;;;;;;6578187;21;20289;-79
2024/04/19 11:42:01;;;;;;;5.35;3.40;;;11.20;68.40;;;;;;6581037;21;20372;-79
2024/04/19 11:44:29;;;;;;;3.70;2.72;;;11.60;69.50;;;;;;6579095;21;20481;-79
2024/04/19 11:47:04;;;;;;;3.10;2.60;;;12.10;68.70;;;;;;6579702;21;19989;-79
2024/04/19 11:49:31;;;;;;;5.55;2.70;;;12.60;63.70;;;;;;6581147;21;20063;-79
2024/04/19 11:51:58;;;;;;;2.53;1.92;;;12.80;59.10;;;;;;6578665;21;19997;-80
2024/04/19 11:54:27;;;;;;;2.42;1.55;;;13.10;58.00;;;;;;6581345;21;19992;-79
2024/04/19 11:56:55;;;;;;;2.35;1.67;;;;;;;;;;6580090;21;20005;-79
2024/04/19 11:59:23;;;;;;;2.30;1.73;;;;;;;;;;6579908;21;20441;-79
2024/04/19 12:01:51;;;;;;;2.05;1.42;;;13.70;55.60;;;;;;6579387;21;20000;-79
2024/04/19 12:04:21;;;;;;;1.52;1.25;;;13.50;54.10;;;;;;6581130;21;19999;-79
2024/04/19 12:06:48;;;;;;;3.38;1.55;;;13.40;52.90;;;;;;6580402;21;20413;-79
2024/04/19 12:09:15;;;;;;;2.08;1.48;;;13.20;52.30;;;;;;6578523;21;19998;-79
2024/04/19 12:11:43;;;;;;;2.17;1.50;;;13.10;51.50;;;;;;6580079;21;20207;-79
2024/04/19 12:14:37;;;;;;;3.25;1.20;;;13.20;51.90;;;;;;6578412;21;20500;-79
2024/04/19 12:17:24;;;;;;;3.38;1.10;;;13.40;53.20;;;;;;6578157;21;20011;-79
2024/04/19 12:19:55;;;;;;;1.98;1.20;;;13.90;53.20;;;;;;6580360;21;20015;-80
2024/04/19 12:22:29;;;;;;;4.93;1.58;;;14.10;51.20;;;;;;6578402;21;20051;-80
2024/04/19 12:24:58;;;;;;;6.68;2.75;;;14.30;51.00;;;;;;6580792;21;19997;-79
2024/04/19 12:27:29;;;;;;;2.45;1.02;;;14.20;49.90;;;;;;6580356;21;20408;-79
2024/04/19 12:29:56;;;;;;;1.30;1.10;;;14.20;48.70;;;;;;6577923;21;19996;-80
2024/04/19 12:32:25;;;;;;;2.28;1.40;;;13.90;49.00;;;;;;6578349;21;20405;-80
2024/04/19 12:34:52;;;;;;;1.30;0.95;;;13.50;47.60;;;;;;6577906;21;20012;-79
2024/04/19 12:37:19;;;;;;;6.47;1.25;;;13.20;48.90;;;;;;6579628;21;20064;-79
2024/04/19 12:39:46;;;;;;;1.85;1.20;;;12.80;49.70;;;;;;6578006;21;19992;-79
2024/04/19 12:42:13;;;;;;;2.45;1.20;;;12.50;51.10;;;;;;6578397;21;19992;-79
2024/04/19 12:44:47;;;;;;;1.73;1.42;;;12.00;52.40;;;;;;6577524;21;20449;-79
2024/04/19 12:47:15;;;;;;;;;;;11.80;53.40;;;;;;6580938;21;20479;-79
2024/04/19 12:49:44;;;;;;;1.85;1.20;;;11.90;54.90;;;;;;6577591;21;19981;-79
2024/04/19 12:52:11;;;;;;;1.60;1.10;;;12.00;54.40;;;;;;6580364;21;20441;-80
2024/04/19 12:54:38;;;;;;;1.40;1.10;;;12.10;53.30;;;;;;6577628;21;20074;-80
2024/04/19 12:57:05;;;;;;;3.17;1.75;;;12.30;54.20;;;;;;6577958;21;19996;-79
2024/04/19 12:59:32;;;;;;;2.05;1.20;;;12.50;52.80;;;;;;6577529;21;19992;-79
2024/04/19 13:01:59;;;;;;;1.35;0.80;;;12.60;51.90;;;;;;6577235;21;20000;-79
2024/04/19 13:04:28;;;;;;;1.67;0.90;;;12.60;52.40;;;;;;6579105;21;19996;-79